createdAt,value
2022-11-06T00:01:17.568Z,3.33
2022-11-06T00:03:45.002Z,3.25
2022-11-06T00:06:32.026Z,3.03
2022-11-06T00:08:59.761Z,3.55
2022-11-06T00:11:26.804Z,2.97
2022-11-06T00:13:53.863Z,3.30
2022-11-06T00:16:20.845Z,3.13
2022-11-06T00:18:47.873Z,3.17
2022-11-06T00:21:20.079Z,3.35
2022-11-06T00:23:46.973Z,3.30
2022-11-06T00:26:19.221Z,3.15
2022-11-06T00:28:46.184Z,3.08
2022-11-06T00:31:21.197Z,3.50
2022-11-06T00:33:48.034Z,3.50
2022-11-06T00:36:16.989Z,2.88
2022-11-06T00:38:43.812Z,3.70
2022-11-06T00:41:13.471Z,3.22
2022-11-06T00:43:40.732Z,3.30
2022-11-06T00:46:12.012Z,3.35
2022-11-06T00:48:39.368Z,3.50
2022-11-06T00:51:11.228Z,3.33
2022-11-06T00:53:37.992Z,2.75
2022-11-06T00:56:12.849Z,2.87
2022-11-06T00:58:39.789Z,3.13
2022-11-06T01:01:07.554Z,3.10
2022-11-06T01:03:34.448Z,3.35
2022-11-06T01:06:06.451Z,2.90
2022-11-06T01:08:33.269Z,3.63
2022-11-06T01:11:05.990Z,3.08
2022-11-06T01:13:32.771Z,3.15
2022-11-06T01:15:59.551Z,3.20
2022-11-06T01:18:26.349Z,3.10
2022-11-06T01:20:53.131Z,3.20
2022-11-06T01:23:19.870Z,3.33
2022-11-06T01:25:56.951Z,3.13
2022-11-06T01:28:23.811Z,2.88
2022-11-06T01:30:50.613Z,2.92
2022-11-06T01:33:17.472Z,3.50
2022-11-06T01:35:48.114Z,2.85
2022-11-06T01:38:15.257Z,3.00
2022-11-06T01:40:46.949Z,3.38
2022-11-06T01:43:22.412Z,3.00
2022-11-06T01:45:51.029Z,3.10
2022-11-06T01:48:19.990Z,3.22
2022-11-06T01:50:48.629Z,2.90
2022-11-06T01:53:15.493Z,2.80
2022-11-06T01:55:46.913Z,2.80
2022-11-06T01:58:16.179Z,2.70
2022-11-06T02:00:43.280Z,2.60
2022-11-06T02:03:10.213Z,3.80
2022-11-06T02:05:37.131Z,2.83
2022-11-06T02:08:04.138Z,3.53
2022-11-06T02:10:30.954Z,3.33
2022-11-06T02:13:23.415Z,3.20
2022-11-06T02:16:09.723Z,3.00
2022-11-06T02:18:50.748Z,2.97
2022-11-06T02:21:41.535Z,3.05
2022-11-06T02:24:45.571Z,3.00
2022-11-06T02:27:20.173Z,2.83
2022-11-06T02:29:51.900Z,3.00
2022-11-06T02:32:25.769Z,2.80
2022-11-06T02:34:53.370Z,2.85
2022-11-06T02:37:24.288Z,3.20
2022-11-06T02:39:51.174Z,3.50
2022-11-06T02:42:19.149Z,3.15
2022-11-06T02:44:47.512Z,3.00
2022-11-06T02:47:14.548Z,3.03
2022-11-06T02:49:54.347Z,3.00
2022-11-06T02:52:26.687Z,3.10
2022-11-06T02:55:01.908Z,2.60
2022-11-06T02:57:28.690Z,2.35
2022-11-06T03:00:04.364Z,2.75
2022-11-06T03:02:37.559Z,3.00
2022-11-06T03:05:14.751Z,2.53
2022-11-06T03:07:45.570Z,2.85
2022-11-06T03:10:12.537Z,2.60
2022-11-06T03:12:55.892Z,2.35
2022-11-06T03:15:57.725Z,2.63
2022-11-06T03:18:33.687Z,2.72
2022-11-06T03:21:03.307Z,2.80
2022-11-06T03:24:01.069Z,2.65
2022-11-06T03:26:33.048Z,2.88
2022-11-06T03:29:23.109Z,2.60
2022-11-06T03:31:54.449Z,3.25
2022-11-06T03:34:30.689Z,3.08
2022-11-06T03:37:02.215Z,2.85
2022-11-06T03:39:32.390Z,3.22
2022-11-06T03:42:11.349Z,3.22
2022-11-06T03:44:41.152Z,3.17
2022-11-06T03:47:12.370Z,3.70
2022-11-06T03:49:41.891Z,3.47
2022-11-06T03:52:13.748Z,4.00
2022-11-06T03:54:44.389Z,3.73
2022-11-06T03:57:29.671Z,3.38
2022-11-06T03:59:59.017Z,3.53
2022-11-06T04:02:26.152Z,3.65
2022-11-06T04:04:57.744Z,4.50
2022-11-06T04:07:30.848Z,3.80
2022-11-06T04:10:18.974Z,3.78
2022-11-06T04:13:04.167Z,3.90
2022-11-06T04:15:32.456Z,4.20
2022-11-06T04:17:59.189Z,3.80
2022-11-06T04:20:44.389Z,4.10
2022-11-06T04:23:37.582Z,4.10
2022-11-06T04:26:37.175Z,3.60
2022-11-06T04:29:08.669Z,3.58
2022-11-06T04:31:49.091Z,3.80
2022-11-06T04:34:45.700Z,3.50
2022-11-06T04:37:18.491Z,3.63
2022-11-06T04:40:09.189Z,4.22
2022-11-06T04:42:50.690Z,4.15
2022-11-06T04:45:21.610Z,3.78
2022-11-06T04:47:48.333Z,3.93
2022-11-06T04:50:15.111Z,4.32
2022-11-06T04:52:41.892Z,3.63
2022-11-06T04:55:08.808Z,4.55
2022-11-06T04:57:35.609Z,4.20
2022-11-06T05:00:02.459Z,4.53
2022-11-06T05:02:29.358Z,4.47
2022-11-06T05:04:56.189Z,4.63
2022-11-06T05:07:22.972Z,4.22
2022-11-06T05:09:49.751Z,4.65
2022-11-06T05:12:16.532Z,4.87
2022-11-06T05:14:43.250Z,4.40
2022-11-06T05:17:10.009Z,4.75
2022-11-06T05:19:36.792Z,4.55
2022-11-06T05:22:22.033Z,4.30
2022-11-06T05:24:48.850Z,4.37
2022-11-06T05:27:15.710Z,4.82
2022-11-06T05:29:42.477Z,4.85
2022-11-06T05:32:09.291Z,4.60
2022-11-06T05:34:36.090Z,5.18
2022-11-06T05:37:02.811Z,4.43
2022-11-06T05:39:29.583Z,4.45
2022-11-06T05:41:56.372Z,4.28
2022-11-06T05:44:23.157Z,4.85
2022-11-06T05:46:50.413Z,4.72
2022-11-06T05:49:20.749Z,4.50
2022-11-06T05:51:47.752Z,4.15
2022-11-06T05:54:15.052Z,4.65
2022-11-06T05:56:41.853Z,4.30
2022-11-06T05:59:08.629Z,4.28
2022-11-06T06:01:36.119Z,4.23
2022-11-06T06:04:03.031Z,4.40
2022-11-06T06:06:29.815Z,4.45
2022-11-06T06:08:56.595Z,4.57
2022-11-06T06:11:23.372Z,5.05
2022-11-06T06:13:50.251Z,3.87
2022-11-06T06:16:17.096Z,4.30
2022-11-06T06:18:43.856Z,4.70
2022-11-06T06:21:10.668Z,4.90
2022-11-06T06:23:37.511Z,4.75
2022-11-06T06:26:05.769Z,5.18
2022-11-06T06:28:33.030Z,4.97
2022-11-06T06:31:01.820Z,5.00
2022-11-06T06:33:28.830Z,5.47
2022-11-06T06:35:55.630Z,5.57
2022-11-06T06:38:22.707Z,5.37
2022-11-06T06:40:49.489Z,5.13
2022-11-06T06:43:16.209Z,5.30
2022-11-06T06:45:42.973Z,5.80
2022-11-06T06:48:09.828Z,6.00
2022-11-06T06:50:36.731Z,6.17
2022-11-06T06:53:03.916Z,6.60
2022-11-06T06:55:30.699Z,6.35
2022-11-06T06:58:00.915Z,6.65
2022-11-06T07:00:28.029Z,5.50
2022-11-06T07:02:54.870Z,6.03
2022-11-06T07:05:21.650Z,5.78
2022-11-06T07:07:48.604Z,6.35
2022-11-06T07:10:15.436Z,6.32
2022-11-06T07:12:42.212Z,6.43
2022-11-06T07:15:09.511Z,6.23
2022-11-06T07:17:36.333Z,5.88
2022-11-06T07:20:05.211Z,6.15
2022-11-06T07:22:37.025Z,6.25
2022-11-06T07:25:05.654Z,5.93
2022-11-06T07:27:32.610Z,6.37
2022-11-06T07:30:00.660Z,5.95
2022-11-06T07:32:27.631Z,6.10
2022-11-06T07:34:54.420Z,6.53
2022-11-06T07:37:21.271Z,6.28
2022-11-06T07:39:48.011Z,6.97
2022-11-06T07:42:14.810Z,6.22
2022-11-06T07:44:41.631Z,6.95
2022-11-06T07:47:08.455Z,6.90
2022-11-06T07:49:35.212Z,6.68
2022-11-06T07:52:02.115Z,7.40
2022-11-06T07:54:28.913Z,7.00
2022-11-06T07:56:55.810Z,7.55
2022-11-06T07:59:22.621Z,6.97
2022-11-06T08:01:49.635Z,7.30
2022-11-06T08:04:16.450Z,7.23
2022-11-06T08:06:43.229Z,7.80
2022-11-06T08:09:10.291Z,7.38
2022-11-06T08:11:37.107Z,7.68
2022-11-06T08:14:03.946Z,7.65
2022-11-06T08:16:31.030Z,7.10
2022-11-06T08:18:57.854Z,7.20
2022-11-06T08:21:24.861Z,6.55
2022-11-06T08:23:51.635Z,6.43
2022-11-06T08:26:18.436Z,6.28
2022-11-06T08:28:45.252Z,6.00
2022-11-06T08:31:12.194Z,5.57
2022-11-06T08:33:39.287Z,5.22
2022-11-06T08:36:06.730Z,5.00
2022-11-06T08:38:33.504Z,5.50
2022-11-06T08:41:07.750Z,5.60
2022-11-06T08:43:34.929Z,4.90
2022-11-06T08:46:01.838Z,4.70
2022-11-06T08:48:28.673Z,5.28
2022-11-06T08:50:55.428Z,5.07
2022-11-06T08:53:22.424Z,4.90
2022-11-06T08:55:49.351Z,4.63
2022-11-06T08:58:16.233Z,4.32
2022-11-06T09:00:43.062Z,4.97
2022-11-06T09:03:12.101Z,4.85
2022-11-06T09:05:42.948Z,4.90
2022-11-06T09:08:10.248Z,5.00
2022-11-06T09:10:37.653Z,4.80
2022-11-06T09:13:04.737Z,5.18
2022-11-06T09:15:31.574Z,5.00
2022-11-06T09:17:58.351Z,5.10
2022-11-06T09:20:25.605Z,4.70
2022-11-06T09:22:52.592Z,4.72
2022-11-06T09:25:19.610Z,5.07
2022-11-06T09:27:55.660Z,4.93
2022-11-06T09:30:26.285Z,5.13
2022-11-06T09:32:54.517Z,4.75
2022-11-06T09:35:22.152Z,5.00
2022-11-06T09:37:48.913Z,4.10
2022-11-06T09:40:35.593Z,4.70
2022-11-06T09:43:14.785Z,4.90
2022-11-06T09:45:41.681Z,6.95
2022-11-06T09:48:11.386Z,7.03
2022-11-06T09:50:41.337Z,6.25
2022-11-06T09:53:38.894Z,6.50
2022-11-06T09:56:06.172Z,7.97
2022-11-06T09:58:37.475Z,6.88
2022-11-06T10:01:23.236Z,15.00
2022-11-06T10:04:00.800Z,7.38
2022-11-06T10:06:27.953Z,7.18
2022-11-06T10:09:00.961Z,6.97
2022-11-06T10:11:49.117Z,6.63
2022-11-06T10:14:36.609Z,6.05
2022-11-06T10:17:31.335Z,9.45
2022-11-06T10:20:39.791Z,8.27
2022-11-06T10:23:16.127Z,9.87
2022-11-06T10:25:52.622Z,12.50
2022-11-06T10:28:22.422Z,9.65
2022-11-06T10:31:10.024Z,7.20
2022-11-06T10:34:01.104Z,9.50
2022-11-06T10:37:16.904Z,8.53
2022-11-06T10:39:44.182Z,6.47
2022-11-06T10:42:14.901Z,5.70
2022-11-06T10:44:45.260Z,4.93
2022-11-06T10:47:19.109Z,4.82
2022-11-06T10:49:53.522Z,5.30
2022-11-06T10:52:32.264Z,4.57
2022-11-06T10:55:10.322Z,5.00
2022-11-06T10:57:47.240Z,5.55
2022-11-06T11:00:15.396Z,4.60
2022-11-06T11:03:04.079Z,4.93
2022-11-06T11:05:44.241Z,4.85
2022-11-06T11:08:49.673Z,5.22
2022-11-06T11:11:25.285Z,4.05
2022-11-06T11:14:03.152Z,4.30
2022-11-06T11:16:32.719Z,4.43
2022-11-06T11:19:25.383Z,4.43
2022-11-06T11:22:18.878Z,3.88
2022-11-06T11:25:06.580Z,3.83
2022-11-06T11:27:37.141Z,3.88
2022-11-06T11:30:05.180Z,4.03
2022-11-06T11:32:31.960Z,4.45
2022-11-06T11:34:58.785Z,4.30
2022-11-06T11:37:26.505Z,4.28
2022-11-06T11:39:53.259Z,4.22
2022-11-06T11:42:30.905Z,4.57
2022-11-06T11:45:13.321Z,3.70
2022-11-06T11:48:13.544Z,3.92
2022-11-06T11:50:47.194Z,3.30
2022-11-06T11:53:42.215Z,3.80
2022-11-06T11:56:30.980Z,4.10
2022-11-06T11:59:05.706Z,4.10
2022-11-06T12:01:41.273Z,3.50
2022-11-06T12:04:24.863Z,3.95
2022-11-06T12:06:53.987Z,3.22
2022-11-06T12:09:21.252Z,3.63
2022-11-06T12:11:48.160Z,3.65
2022-11-06T12:14:34.444Z,3.33
2022-11-06T12:17:09.303Z,3.35
2022-11-06T12:19:49.453Z,3.20
2022-11-06T12:22:26.960Z,3.40
2022-11-06T12:25:20.979Z,3.45
2022-11-06T12:27:50.121Z,3.90
2022-11-06T12:30:18.511Z,3.95
2022-11-06T12:32:54.359Z,3.63
2022-11-06T12:35:34.799Z,4.00
2022-11-06T12:38:12.369Z,3.53
2022-11-06T12:40:40.864Z,3.72
2022-11-06T12:43:20.898Z,3.97
2022-11-06T12:46:25.190Z,3.90
2022-11-06T12:48:59.854Z,4.13
2022-11-06T12:51:47.797Z,4.07
2022-11-06T12:54:37.714Z,4.55
2022-11-06T12:57:34.101Z,4.00
2022-11-06T13:00:04.794Z,3.70
2022-11-06T13:02:44.944Z,4.03
2022-11-06T13:05:23.806Z,4.00
2022-11-06T13:07:57.440Z,4.88
2022-11-06T13:10:26.665Z,4.40
2022-11-06T13:12:53.340Z,5.05
2022-11-06T13:15:38.032Z,4.60
2022-11-06T13:18:08.950Z,4.35
2022-11-06T13:20:39.178Z,4.60
2022-11-06T13:23:23.716Z,4.82
2022-11-06T13:26:16.281Z,4.70
2022-11-06T13:28:45.424Z,5.00
2022-11-06T13:31:14.704Z,5.22
2022-11-06T13:33:54.480Z,4.53
2022-11-06T13:36:21.298Z,5.43
2022-11-06T13:38:55.278Z,5.43
2022-11-06T13:41:24.051Z,5.67
2022-11-06T13:44:18.585Z,5.93
2022-11-06T13:47:05.403Z,5.20
2022-11-06T13:49:59.985Z,5.60
2022-11-06T13:52:32.200Z,5.13
2022-11-06T13:55:24.194Z,5.70
2022-11-06T13:58:14.584Z,5.13
2022-11-06T14:01:03.447Z,6.47
2022-11-06T14:03:43.446Z,5.78
2022-11-06T14:06:23.479Z,5.43
2022-11-06T14:08:55.204Z,5.63
2022-11-06T14:11:27.285Z,6.10
2022-11-06T14:14:16.549Z,6.13
2022-11-06T14:16:43.619Z,6.03
2022-11-06T14:19:23.983Z,5.75
2022-11-06T14:21:55.898Z,5.77
2022-11-06T14:24:31.025Z,5.82
2022-11-06T14:26:58.029Z,6.13
2022-11-06T14:29:27.499Z,6.32
2022-11-06T14:32:24.319Z,6.28
2022-11-06T14:34:51.087Z,6.43
2022-11-06T14:37:30.841Z,5.32
2022-11-06T14:39:58.019Z,6.22
2022-11-06T14:42:27.251Z,6.18
2022-11-06T14:45:16.900Z,6.25
2022-11-06T14:47:46.641Z,6.93
2022-11-06T14:50:19.222Z,6.65
2022-11-06T14:52:50.119Z,6.30
2022-11-06T14:55:43.682Z,7.05
2022-11-06T14:58:17.424Z,6.45
2022-11-06T15:01:12.892Z,6.37
2022-11-06T15:03:49.886Z,6.53
2022-11-06T15:06:16.642Z,6.13
2022-11-06T15:08:49.727Z,6.70
2022-11-06T15:11:46.629Z,6.47
2022-11-06T15:14:14.814Z,5.93
2022-11-06T15:16:45.622Z,5.60
2022-11-06T15:19:21.800Z,5.63
2022-11-06T15:22:27.239Z,5.88
2022-11-06T15:25:12.792Z,5.80
2022-11-06T15:27:43.281Z,5.80
2022-11-06T15:30:15.060Z,6.15
2022-11-06T15:32:42.658Z,5.63
2022-11-06T15:35:17.810Z,6.68
2022-11-06T15:37:49.344Z,6.55
2022-11-06T15:40:29.324Z,6.73
2022-11-06T15:42:57.860Z,6.45
2022-11-06T15:45:26.618Z,6.25
2022-11-06T15:48:01.149Z,6.93
2022-11-06T15:50:28.959Z,6.85
2022-11-06T15:53:04.500Z,7.43
2022-11-06T15:55:36.021Z,6.95
2022-11-06T15:58:31.332Z,7.90
2022-11-06T16:01:02.911Z,6.88
2022-11-06T16:03:32.390Z,7.43
2022-11-06T16:06:01.735Z,7.27
2022-11-06T16:08:29.603Z,8.30
2022-11-06T16:10:56.420Z,7.63
2022-11-06T16:13:24.061Z,7.65
2022-11-06T16:15:55.858Z,7.32
2022-11-06T16:18:26.528Z,7.67
2022-11-06T16:20:53.201Z,7.90
2022-11-06T16:23:31.601Z,8.02
2022-11-06T16:26:23.982Z,8.35
2022-11-06T16:28:51.199Z,7.68
2022-11-06T16:31:22.966Z,7.97
2022-11-06T16:34:03.446Z,8.20
2022-11-06T16:36:31.254Z,7.95
2022-11-06T16:39:40.229Z,8.27
2022-11-06T16:42:22.401Z,7.75
2022-11-06T16:44:50.541Z,9.33
2022-11-06T16:47:21.664Z,7.88
2022-11-06T16:49:55.426Z,7.82
2022-11-06T16:52:30.402Z,8.15
2022-11-06T16:55:01.073Z,7.90
2022-11-06T16:57:59.886Z,7.90
2022-11-06T17:00:29.277Z,8.05
2022-11-06T17:03:00.820Z,8.07
2022-11-06T17:05:29.682Z,8.48
2022-11-06T17:08:21.582Z,8.18
2022-11-06T17:10:56.360Z,8.67
2022-11-06T17:13:27.863Z,8.45
2022-11-06T17:16:02.058Z,8.10
2022-11-06T17:18:33.469Z,8.25
2022-11-06T17:21:04.639Z,8.93
2022-11-06T17:23:31.739Z,8.80
2022-11-06T17:26:01.580Z,9.23
2022-11-06T17:28:28.548Z,9.60
2022-11-06T17:30:55.372Z,9.50
2022-11-06T17:33:22.161Z,10.00
2022-11-06T17:35:49.386Z,10.17
2022-11-06T17:38:17.000Z,10.43
2022-11-06T17:40:44.220Z,11.02
2022-11-06T17:43:11.383Z,11.02
2022-11-06T17:45:38.562Z,11.00
2022-11-06T17:48:05.649Z,11.20
2022-11-06T17:50:52.405Z,11.00
2022-11-06T17:53:19.324Z,9.60
2022-11-06T17:55:46.201Z,10.73
2022-11-06T17:58:13.244Z,10.73
2022-11-06T18:00:40.212Z,11.40
2022-11-06T18:03:08.345Z,10.95
2022-11-06T18:05:36.043Z,11.70
2022-11-06T18:08:02.878Z,12.07
2022-11-06T18:10:30.863Z,12.32
2022-11-06T18:12:57.822Z,12.00
2022-11-06T18:15:24.603Z,13.05
2022-11-06T18:17:51.353Z,12.85
2022-11-06T18:20:18.118Z,13.65
2022-11-06T18:22:44.869Z,12.40
2022-11-06T18:25:11.608Z,12.83
2022-11-06T18:27:38.375Z,12.82
2022-11-06T18:30:05.642Z,13.02
2022-11-06T18:32:32.411Z,13.07
2022-11-06T18:34:59.200Z,12.60
2022-11-06T18:37:26.056Z,12.77
2022-11-06T18:39:52.779Z,13.43
2022-11-06T18:42:19.581Z,12.85
2022-11-06T18:44:46.302Z,13.23
2022-11-06T18:47:13.164Z,12.85
2022-11-06T18:49:40.058Z,14.10
2022-11-06T18:52:06.878Z,13.25
2022-11-06T18:54:33.778Z,12.82
2022-11-06T18:57:00.561Z,12.45
2022-11-06T18:59:29.400Z,12.63
2022-11-06T19:01:56.362Z,12.43
2022-11-06T19:04:23.305Z,12.68
2022-11-06T19:09:42.067Z,13.75
2022-11-06T19:12:08.861Z,11.82
2022-11-06T19:14:35.643Z,12.80
2022-11-06T19:17:03.125Z,13.13
2022-11-06T19:19:29.900Z,12.82
2022-11-06T19:21:56.701Z,12.77
2022-11-06T19:24:23.559Z,12.38
2022-11-06T19:26:50.482Z,12.17
2022-11-06T19:29:17.232Z,12.20
2022-11-06T19:31:44.023Z,13.40
2022-11-06T19:34:14.183Z,12.40
2022-11-06T19:36:41.247Z,13.38
2022-11-06T19:39:08.086Z,12.80
2022-11-06T19:41:34.959Z,12.77
2022-11-06T19:44:01.743Z,13.93
2022-11-06T19:46:35.222Z,12.52
2022-11-06T19:49:06.381Z,13.77
2022-11-06T19:51:33.580Z,13.13
2022-11-06T19:54:01.650Z,12.95
2022-11-06T19:56:28.445Z,12.70
2022-11-06T19:58:55.258Z,11.95
2022-11-06T20:01:22.230Z,12.60
2022-11-06T20:03:49.088Z,12.70
2022-11-06T20:06:16.202Z,12.45
2022-11-06T20:08:43.138Z,11.80
2022-11-06T20:11:14.655Z,12.48
2022-11-06T20:13:42.000Z,12.25
2022-11-06T20:16:13.987Z,12.33
2022-11-06T20:18:40.849Z,12.77
2022-11-06T20:21:09.199Z,12.50
2022-11-06T20:23:36.457Z,12.77
2022-11-06T20:26:03.499Z,12.68
2022-11-06T20:28:30.525Z,13.03
2022-11-06T20:30:57.340Z,14.07
2022-11-06T20:33:24.191Z,12.93
2022-11-06T20:35:51.012Z,14.27
2022-11-06T20:38:17.786Z,13.27
2022-11-06T20:40:44.906Z,14.10
2022-11-06T20:43:12.107Z,13.75
2022-11-06T20:45:39.935Z,13.27
2022-11-06T20:48:07.421Z,12.13
2022-11-06T20:50:34.196Z,12.48
2022-11-06T20:53:01.008Z,12.07
2022-11-06T20:55:27.910Z,12.77
2022-11-06T20:57:54.747Z,11.77
2022-11-06T21:00:21.600Z,12.30
2022-11-06T21:02:48.497Z,12.30
2022-11-06T21:05:15.457Z,11.53
2022-11-06T21:07:42.262Z,11.38
2022-11-06T21:10:11.018Z,10.88
2022-11-06T21:12:38.047Z,11.68
2022-11-06T21:15:05.401Z,11.32
2022-11-06T21:17:32.207Z,12.37
2022-11-06T21:19:58.980Z,11.85
2022-11-06T21:22:25.922Z,11.45
2022-11-06T21:24:52.741Z,11.60
2022-11-06T21:27:20.191Z,11.80
2022-11-06T21:29:46.957Z,11.37
2022-11-06T21:32:13.778Z,11.25
2022-11-06T21:34:40.517Z,10.88
2022-11-06T21:37:07.339Z,11.13
2022-11-06T21:39:36.572Z,11.70
2022-11-06T21:42:04.830Z,11.63
2022-11-06T21:44:31.699Z,11.68
2022-11-06T21:46:58.501Z,11.52
2022-11-06T21:49:25.341Z,11.45
2022-11-06T21:51:52.163Z,10.77
2022-11-06T21:54:37.275Z,11.67
2022-11-06T21:57:04.179Z,11.55
2022-11-06T21:59:31.144Z,11.82
2022-11-06T22:01:58.171Z,12.50
2022-11-06T22:04:25.080Z,11.75
2022-11-06T22:06:52.767Z,11.50
2022-11-06T22:09:24.923Z,12.27
2022-11-06T22:11:52.682Z,12.10
2022-11-06T22:14:19.424Z,11.98
2022-11-06T22:16:46.837Z,12.10
2022-11-06T22:19:13.882Z,12.30
2022-11-06T22:21:40.821Z,11.82
2022-11-06T22:24:07.999Z,11.95
2022-11-06T22:26:35.104Z,12.32
2022-11-06T22:29:05.060Z,12.85
2022-11-06T22:31:31.865Z,12.33
2022-11-06T22:33:58.724Z,11.50
2022-11-06T22:36:25.967Z,11.90
2022-11-06T22:38:52.967Z,12.25
2022-11-06T22:41:21.823Z,12.25
2022-11-06T22:43:48.687Z,12.67
2022-11-06T22:46:20.551Z,12.27
2022-11-06T22:48:47.580Z,12.15
2022-11-06T22:51:16.201Z,13.40
2022-11-06T22:53:42.981Z,13.80
2022-11-06T22:56:12.478Z,13.33
2022-11-06T22:58:39.901Z,13.15
2022-11-06T23:01:06.853Z,12.25
2022-11-06T23:03:33.779Z,12.13
2022-11-06T23:06:03.205Z,12.40
2022-11-06T23:08:30.020Z,12.43
2022-11-06T23:10:56.938Z,12.18
2022-11-06T23:13:23.864Z,12.40
2022-11-06T23:15:51.260Z,11.57
2022-11-06T23:18:18.184Z,11.82
2022-11-06T23:20:44.988Z,11.87
2022-11-06T23:23:11.982Z,11.82
2022-11-06T23:25:38.882Z,10.95
2022-11-06T23:28:05.722Z,10.80
2022-11-06T23:30:32.541Z,11.00
2022-11-06T23:32:59.470Z,10.33
2022-11-06T23:35:32.242Z,10.60
2022-11-06T23:37:59.720Z,10.57
2022-11-06T23:40:26.720Z,10.77
2022-11-06T23:42:56.151Z,10.73
2022-11-06T23:45:41.332Z,10.23
2022-11-06T23:48:13.376Z,10.25
2022-11-06T23:50:40.800Z,10.32
2022-11-06T23:53:07.643Z,10.80
2022-11-06T23:55:34.419Z,10.55
2022-11-06T23:58:01.260Z,11.03
